Time;durP1;ratioP1;P1;durP2;ratioP2;P2;SDS_P1;SDS_P2;PMS_P1;PMS_P2;Temp;Humidity;BMP_temperature;BMP_pressure;BME280_temperature;BME280_humidity;BME280_pressure;Samples;Min_cycle;Max_cycle;Signal;HPM_P1;HPM_P2
2022/04/23 00:00:52;;;;;;;4.57;3.50;;;13.10;99.90;;;;;;5117448;28;20199;-82
2022/04/23 00:03:19;;;;;;;6.20;3.90;;;13.10;99.90;;;;;;5116879;28;20475;-82
2022/04/23 00:05:46;;;;;;;6.27;3.93;;;13.10;99.90;;;;;;5117573;28;20588;-83
2022/04/23 00:08:14;;;;;;;6.57;4.30;;;13.10;99.90;;;;;;5116676;28;20231;-82
2022/04/23 00:10:42;;;;;;;4.43;4.03;;;13.10;99.90;;;;;;5117103;28;20274;-83
2022/04/23 00:13:09;;;;;;;6.13;4.20;;;13.00;99.90;;;;;;5116698;28;20199;-83
2022/04/23 00:15:37;;;;;;;5.53;4.47;;;13.10;99.90;;;;;;5116567;28;20215;-82
2022/04/23 00:18:06;;;;;;;7.63;4.77;;;13.00;99.90;;;;;;5116845;28;20234;-83
2022/04/23 00:20:33;;;;;;;6.63;4.77;;;13.00;99.90;;;;;;5116859;28;20188;-83
2022/04/23 00:23:00;;;;;;;5.50;4.47;;;12.90;99.90;;;;;;5115872;28;20207;-82
2022/04/23 00:25:27;;;;;;;7.97;4.47;;;12.90;99.90;;;;;;5116673;28;20195;-83
2022/04/23 00:27:56;;;;;;;6.40;4.97;;;12.90;99.90;;;;;;5116746;28;20227;-84
2022/04/23 00:30:22;;;;;;;4.90;4.40;;;12.90;99.90;;;;;;5116144;28;20195;-83
2022/04/23 00:32:49;;;;;;;8.97;4.93;;;12.90;99.90;;;;;;5116758;28;20226;-83
2022/04/23 00:35:16;;;;;;;8.23;4.67;;;12.90;99.90;;;;;;5116082;28;20306;-84
2022/04/23 00:37:44;;;;;;;8.23;4.77;;;12.90;99.90;;;;;;5115648;28;20192;-82
2022/04/23 00:40:16;;;;;;;7.10;5.87;;;12.90;99.90;;;;;;5116526;28;20208;-81
2022/04/23 00:42:47;;;;;;;6.33;4.47;;;12.90;99.90;;;;;;5117022;28;20184;-83
2022/04/23 00:45:15;;;;;;;5.40;4.07;;;12.90;99.90;;;;;;5115988;28;20196;-83
2022/04/23 00:47:42;;;;;;;6.33;4.90;;;12.90;99.90;;;;;;5116428;28;20200;-85
2022/04/23 00:50:10;;;;;;;8.17;4.70;;;12.80;99.90;;;;;;5116034;28;20261;-85
2022/04/23 00:52:37;;;;;;;5.77;5.07;;;12.80;99.90;;;;;;5116140;28;20207;-80
2022/04/23 00:55:05;;;;;;;7.00;4.80;;;12.70;99.90;;;;;;5116277;28;20226;-82
2022/04/23 00:57:33;;;;;;;6.43;4.63;;;12.70;99.90;;;;;;5114933;28;20253;-81
2022/04/23 01:00:03;;;;;;;9.20;5.33;;;12.60;99.90;;;;;;5116434;28;20195;-83
2022/04/23 01:02:31;;;;;;;9.37;5.50;;;12.60;99.90;;;;;;5115817;28;20203;-82
2022/04/23 01:04:58;;;;;;;7.13;5.30;;;12.60;99.90;;;;;;5115345;28;20195;-82
2022/04/23 01:07:25;;;;;;;7.60;5.60;;;12.50;99.90;;;;;;5115892;28;20204;-81
2022/04/23 01:09:52;;;;;;;8.20;6.00;;;12.50;99.90;;;;;;5115983;28;20188;-82
2022/04/23 01:12:19;;;;;;;8.67;5.17;;;12.50;99.90;;;;;;5114736;28;20206;-82
2022/04/23 01:14:59;;;;;;;7.13;5.13;;;12.50;99.90;;;;;;5115984;28;20211;-82
2022/04/23 01:17:26;;;;;;;8.27;6.07;;;12.40;99.90;;;;;;5115650;28;20200;-82
2022/04/23 01:19:54;;;;;;;8.60;6.70;;;12.40;99.90;;;;;;5115616;28;20199;-83
2022/04/23 01:22:24;;;;;;;12.20;6.67;;;12.40;99.90;;;;;;5115170;28;20515;-84
2022/04/23 01:24:51;;;;;;;7.30;6.13;;;12.40;99.90;;;;;;5115494;28;20265;-83
2022/04/23 01:27:19;;;;;;;13.37;6.93;;;12.30;99.90;;;;;;5113578;28;20212;-84
2022/04/23 01:29:46;;;;;;;10.50;6.83;;;12.30;99.90;;;;;;5115472;28;20262;-82
2022/04/23 01:32:13;;;;;;;8.97;6.73;;;12.30;99.90;;;;;;5115294;28;20216;-82
2022/04/23 01:34:39;;;;;;;11.30;8.20;;;12.30;99.90;;;;;;5115740;28;20219;-82
2022/04/23 01:37:07;;;;;;;9.10;7.30;;;12.20;99.90;;;;;;5115604;28;20215;-83
2022/04/23 01:39:35;;;;;;;9.07;8.17;;;12.20;99.90;;;;;;5115131;28;20604;-82
2022/04/23 01:42:02;;;;;;;14.50;9.17;;;12.20;99.90;;;;;;5115825;28;20610;-81
2022/04/23 01:44:29;;;;;;;13.43;9.60;;;12.20;99.90;;;;;;5114767;28;20215;-81
2022/04/23 01:46:56;;;;;;;13.07;9.93;;;12.20;99.90;;;;;;5117303;28;20206;-82
2022/04/23 01:49:23;;;;;;;9.73;8.47;;;12.10;99.90;;;;;;5119316;28;20253;-81
2022/04/23 01:51:49;;;;;;;10.87;9.77;;;12.10;99.90;;;;;;5119446;28;20203;-81
2022/04/23 01:54:16;;;;;;;11.87;10.40;;;12.10;99.90;;;;;;5118965;28;20247;-82
2022/04/23 01:56:44;;;;;;;15.30;11.17;;;12.10;99.90;;;;;;5119013;28;20196;-82
2022/04/23 01:59:11;;;;;;;14.70;11.67;;;12.10;99.90;;;;;;5119208;28;20473;-82
2022/04/23 02:01:38;;;;;;;13.90;12.07;;;12.10;99.90;;;;;;5118977;28;20208;-81
2022/04/23 02:04:06;;;;;;;12.50;11.20;;;12.10;99.90;;;;;;5119656;28;20203;-81
2022/04/23 02:06:33;;;;;;;14.83;12.63;;;12.10;99.90;;;;;;5118596;28;20212;-81
2022/04/23 02:09:00;;;;;;;16.00;12.83;;;12.10;99.90;;;;;;5118673;28;20195;-81
2022/04/23 02:11:27;;;;;;;17.20;12.97;;;12.10;99.90;;;;;;5118163;28;20199;-82
2022/04/23 02:13:55;;;;;;;17.03;13.70;;;12.10;99.90;;;;;;5120612;28;20592;-82
2022/04/23 02:16:22;;;;;;;19.47;13.03;;;12.00;99.90;;;;;;5119326;28;20200;-82
2022/04/23 02:18:49;;;;;;;16.47;13.80;;;12.00;99.90;;;;;;5116847;28;20530;-81
2022/04/23 02:21:15;;;;;;;19.90;14.03;;;12.00;99.90;;;;;;5120984;28;20195;-81
2022/04/23 02:23:43;;;;;;;19.77;15.07;;;12.10;99.90;;;;;;5120946;28;20184;-79
2022/04/23 02:26:10;;;;;;;17.53;15.30;;;12.10;99.90;;;;;;5119130;28;20200;-81
2022/04/23 02:28:38;;;;;;;17.97;13.90;;;12.10;99.90;;;;;;5120889;28;20231;-81
2022/04/23 02:31:07;;;;;;;16.83;15.03;;;12.10;99.90;;;;;;5118732;28;20655;-81
2022/04/23 02:33:34;;;;;;;26.63;16.17;;;12.00;99.90;;;;;;5119261;28;20296;-81
2022/04/23 02:36:01;;;;;;;17.63;15.07;;;12.00;99.90;;;;;;5117962;28;20216;-81
2022/04/23 02:38:28;;;;;;;18.13;16.23;;;12.00;99.90;;;;;;5119040;28;20192;-82
2022/04/23 02:40:55;;;;;;;18.77;16.17;;;12.00;99.90;;;;;;5117748;28;20529;-80
2022/04/23 02:43:22;;;;;;;20.80;16.37;;;12.00;99.90;;;;;;5116931;28;20218;-83
2022/04/23 02:45:49;;;;;;;19.03;16.20;;;11.90;99.90;;;;;;5118709;28;20203;-82
2022/04/23 02:48:17;;;;;;;17.53;14.97;;;11.90;99.90;;;;;;5118023;28;20239;-82
2022/04/23 02:50:44;;;;;;;20.30;16.37;;;11.90;99.90;;;;;;5117061;28;20208;-81
2022/04/23 02:53:10;;;;;;;20.90;16.60;;;11.90;99.90;;;;;;5117940;28;20207;-81
2022/04/23 02:55:39;;;;;;;18.40;15.90;;;11.90;99.90;;;;;;5117493;28;20230;-81
2022/04/23 02:58:08;;;;;;;17.90;16.00;;;11.80;99.90;;;;;;5117325;28;20208;-80
2022/04/23 03:00:35;;;;;;;21.87;16.17;;;11.90;99.90;;;;;;5117852;28;20513;-81
2022/04/23 03:03:02;;;;;;;19.73;16.23;;;11.80;99.90;;;;;;5117978;28;20600;-82
2022/04/23 03:05:31;;;;;;;20.57;16.80;;;11.80;99.90;;;;;;5116391;28;20694;-81
2022/04/23 03:07:59;;;;;;;19.97;15.97;;;11.70;99.90;;;;;;5117922;28;20223;-82
2022/04/23 03:10:28;;;;;;;18.50;16.60;;;11.80;99.90;;;;;;5118047;28;20196;-81
2022/04/23 03:12:57;;;;;;;22.20;17.50;;;11.80;99.90;;;;;;5117008;28;20757;-81
2022/04/23 03:15:25;;;;;;;20.27;17.17;;;11.80;99.90;;;;;;5116911;28;20212;-82
2022/04/23 03:18:04;;;;;;;19.30;17.30;;;11.80;99.90;;;;;;5117496;28;20196;-81
2022/04/23 03:20:32;;;;;;;22.73;17.97;;;11.90;99.90;;;;;;5116831;28;20203;-81
2022/04/23 03:22:59;;;;;;;21.73;17.60;;;11.90;99.90;;;;;;5117736;28;20196;-81
2022/04/23 03:25:26;;;;;;;19.30;17.17;;;11.90;99.90;;;;;;5116613;28;20204;-82
2022/04/23 03:27:53;;;;;;;19.00;17.00;;;11.90;99.90;;;;;;5117063;28;20595;-81
2022/04/23 03:30:20;;;;;;;21.43;18.33;;;11.90;99.90;;;;;;5102417;28;20263;-82
2022/04/23 03:32:47;;;;;;;19.30;17.30;;;11.90;99.90;;;;;;5096440;28;20251;-82
2022/04/23 03:35:14;;;;;;;20.63;17.60;;;11.90;99.90;;;;;;5111253;28;20572;-83
2022/04/23 03:37:43;;;;;;;21.37;19.17;;;11.80;99.90;;;;;;5117296;28;20199;-81
2022/04/23 03:40:12;;;;;;;20.50;18.23;;;11.80;99.90;;;;;;5116237;28;20208;-82
2022/04/23 03:42:40;;;;;;;21.67;16.53;;;11.80;99.90;;;;;;5116718;28;20211;-82
2022/04/23 03:45:09;;;;;;;20.20;17.83;;;11.80;99.90;;;;;;5096524;28;20496;-82
2022/04/23 03:47:36;;;;;;;20.13;17.97;;;11.80;99.90;;;;;;5096159;28;20215;-82
2022/04/23 03:50:05;;;;;;;20.23;18.10;;;11.80;99.90;;;;;;5105784;28;20204;-82
2022/04/23 03:52:32;;;;;;;19.97;17.80;;;11.80;99.90;;;;;;5116823;28;20535;-80
2022/04/23 03:55:00;;;;;;;19.50;17.17;;;11.80;99.90;;;;;;5110623;28;20269;-82
2022/04/23 03:57:27;;;;;;;20.23;17.43;;;11.80;99.90;;;;;;5096564;28;20196;-82
2022/04/23 03:59:54;;;;;;;20.53;18.33;;;11.70;99.90;;;;;;5100157;28;20199;-82
2022/04/23 04:02:21;;;;;;;20.07;17.90;;;11.70;99.90;;;;;;5116212;28;20196;-82
2022/04/23 04:04:48;;;;;;;20.07;17.40;;;11.70;99.90;;;;;;5116256;28;20278;-84
2022/04/23 04:07:19;;;;;;;19.17;16.63;;;11.60;99.90;;;;;;5116109;28;20203;-82
2022/04/23 04:09:46;;;;;;;19.17;17.17;;;11.70;99.90;;;;;;5116212;28;20191;-81
2022/04/23 04:12:14;;;;;;;20.03;17.90;;;11.70;99.90;;;;;;5115991;28;20207;-84
2022/04/23 04:14:42;;;;;;;20.77;18.30;;;11.60;99.90;;;;;;5116445;28;20216;-83
2022/04/23 04:17:11;;;;;;;19.03;16.80;;;11.60;99.90;;;;;;5116791;28;20212;-82
2022/04/23 04:19:38;;;;;;;19.50;16.70;;;11.60;99.90;;;;;;5116025;28;20204;-82
2022/04/23 04:22:06;;;;;;;20.40;16.83;;;11.50;99.90;;;;;;5116269;28;20207;-81
2022/04/23 04:24:34;;;;;;;19.40;16.70;;;11.40;99.90;;;;;;5116862;28;20204;-81
2022/04/23 04:27:01;;;;;;;18.73;16.23;;;11.40;99.90;;;;;;5116374;28;20285;-82
2022/04/23 04:29:29;;;;;;;19.03;16.03;;;11.40;99.90;;;;;;5115324;28;20300;-81
2022/04/23 04:31:57;;;;;;;20.57;17.07;;;11.30;99.90;;;;;;5116042;28;20220;-81
2022/04/23 04:34:28;;;;;;;20.77;16.80;;;11.30;99.90;;;;;;5115640;28;20211;-81
2022/04/23 04:37:04;;;;;;;19.20;17.17;;;11.30;99.90;;;;;;5115999;28;20207;-82
2022/04/23 04:39:31;;;;;;;18.67;16.67;;;11.20;99.90;;;;;;5116296;28;20195;-83
2022/04/23 04:41:58;;;;;;;18.93;16.10;;;11.20;99.90;;;;;;5116225;28;20526;-81
2022/04/23 04:44:25;;;;;;;17.80;15.90;;;11.20;99.90;;;;;;5115788;28;20196;-82
2022/04/23 04:46:53;;;;;;;19.37;16.90;;;11.30;99.90;;;;;;5115901;28;20203;-81
2022/04/23 04:49:22;;;;;;;21.93;17.07;;;11.20;99.90;;;;;;5116093;28;20595;-81
2022/04/23 04:51:49;;;;;;;19.93;16.57;;;11.30;99.90;;;;;;5115925;28;20196;-82
2022/04/23 04:54:17;;;;;;;16.90;14.67;;;11.30;99.90;;;;;;5115869;28;20207;-84
2022/04/23 04:56:44;;;;;;;17.87;15.97;;;11.30;99.90;;;;;;5114333;28;20943;-82
2022/04/23 04:59:11;;;;;;;19.03;15.90;;;11.30;99.90;;;;;;5115903;28;20199;-82
2022/04/23 05:01:38;;;;;;;18.80;16.20;;;11.30;99.90;;;;;;5103614;28;20211;-81
2022/04/23 05:04:07;;;;;;;17.30;15.43;;;11.30;99.90;;;;;;5095087;28;20192;-82
2022/04/23 05:06:34;;;;;;;17.43;15.63;;;11.30;99.90;;;;;;5104164;28;20202;-80
2022/04/23 05:09:01;;;;;;;17.03;15.23;;;11.30;99.90;;;;;;5116060;28;20200;-82
2022/04/23 05:11:27;;;;;;;18.37;15.20;;;11.30;99.90;;;;;;5115200;28;20196;-81
2022/04/23 05:13:55;;;;;;;16.73;14.90;;;11.40;99.90;;;;;;5116039;28;20203;-81
2022/04/23 05:16:22;;;;;;;16.17;14.57;;;11.30;99.90;;;;;;5116261;28;20222;-82
2022/04/23 05:18:49;;;;;;;16.17;14.57;;;11.40;99.90;;;;;;5115446;28;20195;-82
2022/04/23 05:21:17;;;;;;;18.10;14.87;;;11.40;99.90;;;;;;5118004;28;20198;-81
2022/04/23 05:23:44;;;;;;;15.77;14.17;;;11.40;99.90;;;;;;5099960;28;20207;-82
2022/04/23 05:26:11;;;;;;;15.83;13.70;;;11.40;99.90;;;;;;5099328;28;20482;-82
2022/04/23 05:28:39;;;;;;;16.03;13.80;;;11.40;99.90;;;;;;5099407;28;20228;-82
2022/04/23 05:31:06;;;;;;;14.90;13.40;;;11.50;99.90;;;;;;5100890;28;20211;-82
2022/04/23 05:33:33;;;;;;;15.57;13.97;;;11.50;99.90;;;;;;5119313;28;20218;-81
2022/04/23 05:35:59;;;;;;;14.73;12.87;;;11.50;99.90;;;;;;5119663;28;20230;-81
2022/04/23 05:38:28;;;;;;;16.07;13.77;;;11.50;99.90;;;;;;5103875;28;20197;-82
2022/04/23 05:40:54;;;;;;;14.83;12.67;;;11.50;99.90;;;;;;5099008;28;20207;-81
2022/04/23 05:43:21;;;;;;;14.13;12.70;;;11.50;99.90;;;;;;5106953;28;20614;-82
2022/04/23 05:45:50;;;;;;;13.80;12.33;;;11.60;99.90;;;;;;5118995;28;20188;-81
2022/04/23 05:48:17;;;;;;;14.70;12.13;;;11.60;99.90;;;;;;5119267;28;20198;-81
2022/04/23 05:50:44;;;;;;;15.03;13.47;;;11.60;99.90;;;;;;5118801;28;20214;-82
2022/04/23 05:53:11;;;;;;;15.10;13.10;;;11.60;99.90;;;;;;5119041;28;20623;-82
2022/04/23 05:55:39;;;;;;;16.10;12.80;;;11.60;99.90;;;;;;5119350;28;20624;-83
2022/04/23 05:58:06;;;;;;;13.43;12.13;;;11.60;99.90;;;;;;5119629;28;20199;-83
2022/04/23 06:00:33;;;;;;;14.50;12.97;;;11.60;99.90;;;;;;5118300;28;20210;-82
2022/04/23 06:03:00;;;;;;;13.90;12.17;;;11.60;99.90;;;;;;5118898;28;20494;-81
2022/04/23 06:05:27;;;;;;;13.97;12.27;;;11.70;99.90;;;;;;5118363;28;20615;-86
2022/04/23 06:07:54;;;;;;;14.00;12.50;;;11.70;99.90;;;;;;5118588;28;20207;-82
2022/04/23 06:10:21;;;;;;;13.30;12.00;;;11.70;99.90;;;;;;5119141;28;20204;-82
2022/04/23 06:12:49;;;;;;;14.33;12.30;;;11.70;99.90;;;;;;5118990;28;20212;-81
2022/04/23 06:15:15;;;;;;;13.40;11.90;;;11.70;99.90;;;;;;5118015;28;20235;-81
2022/04/23 06:17:43;;;;;;;14.63;13.00;;;11.80;99.90;;;;;;5118911;28;20608;-81
2022/04/23 06:20:10;;;;;;;13.60;12.20;;;11.80;99.90;;;;;;5118872;28;20204;-82
2022/04/23 06:22:37;;;;;;;15.27;12.63;;;11.90;99.90;;;;;;5118438;28;20196;-82
2022/04/23 06:25:05;;;;;;;14.43;13.03;;;12.00;99.90;;;;;;5118770;28;20196;-81
2022/04/23 06:27:32;;;;;;;15.43;13.20;;;12.00;99.90;;;;;;5118450;28;20208;-83
2022/04/23 06:30:01;;;;;;;13.53;12.13;;;12.10;99.90;;;;;;5118526;28;20571;-82
2022/04/23 06:32:27;;;;;;;14.00;12.53;;;12.20;99.90;;;;;;5118047;28;20231;-84
2022/04/23 06:34:54;;;;;;;15.73;12.57;;;12.30;99.90;;;;;;5118266;28;20208;-81
2022/04/23 06:37:21;;;;;;;14.00;12.40;;;12.40;99.90;;;;;;5118303;28;20230;-82
2022/04/23 06:39:47;;;;;;;14.37;12.63;;;12.40;99.90;;;;;;5118562;28;20316;-80
2022/04/23 06:42:14;;;;;;;12.90;11.17;;;12.50;99.90;;;;;;5118199;28;20607;-81
2022/04/23 06:44:41;;;;;;;13.73;12.33;;;12.60;99.90;;;;;;5118922;28;20192;-81
2022/04/23 06:47:09;;;;;;;13.57;12.17;;;12.70;99.90;;;;;;5118758;28;20192;-81
2022/04/23 06:49:36;;;;;;;13.17;11.87;;;12.80;99.90;;;;;;5118019;28;20495;-81
2022/04/23 06:52:03;;;;;;;12.53;11.20;;;12.80;99.90;;;;;;5118686;28;20203;-81
2022/04/23 06:54:30;;;;;;;12.67;10.73;;;13.10;99.90;;;;;;5118993;28;20200;-82
2022/04/23 06:56:57;;;;;;;12.97;11.67;;;13.20;99.90;;;;;;5116863;28;20236;-82
2022/04/23 06:59:24;;;;;;;11.77;10.53;;;13.30;99.90;;;;;;5118642;28;20639;-82
2022/04/23 07:01:50;;;;;;;13.10;11.27;;;13.40;99.90;;;;;;5117713;28;20215;-82
2022/04/23 07:04:19;;;;;;;11.90;10.60;;;13.50;99.90;;;;;;5117841;28;20207;-82
2022/04/23 07:06:46;;;;;;;12.37;11.07;;;13.60;99.90;;;;;;5098107;28;20201;-83
2022/04/23 07:09:12;;;;;;;13.20;11.97;;;13.70;99.90;;;;;;5106241;28;20482;-82
2022/04/23 07:11:39;;;;;;;12.30;10.77;;;13.70;99.90;;;;;;5118034;28;20200;-83
2022/04/23 07:14:07;;;;;;;13.73;10.83;;;13.70;99.90;;;;;;5118147;28;20233;-81
2022/04/23 07:16:34;;;;;;;12.07;10.70;;;13.90;99.90;;;;;;5117216;28;20717;-81
2022/04/23 07:19:00;;;;;;;13.03;11.00;;;13.90;99.90;;;;;;5117818;28;20199;-82
2022/04/23 07:21:29;;;;;;;12.17;10.90;;;14.00;99.90;;;;;;5116954;28;20203;-82
2022/04/23 07:24:05;;;;;;;12.00;10.47;;;14.20;99.90;;;;;;5117521;28;20192;-86
2022/04/23 07:26:34;;;;;;;12.60;10.97;;;14.20;99.90;;;;;;5117709;28;20278;-81
2022/04/23 07:29:02;;;;;;;13.60;11.53;;;14.20;99.90;;;;;;5117467;28;20235;-80
2022/04/23 07:31:29;;;;;;;11.93;10.73;;;14.20;99.90;;;;;;5116554;28;20235;-81
2022/04/23 07:39:29;;;;;;;13.97;11.30;;;14.50;99.90;;;;;;5117086;28;20187;-83
2022/04/23 07:41:56;;;;;;;12.23;10.90;;;14.50;99.90;;;;;;5117191;28;20230;-83
2022/04/23 07:44:23;;;;;;;16.10;11.83;;;14.50;99.90;;;;;;5115145;28;20224;-83
2022/04/23 07:46:50;;;;;;;12.10;10.90;;;14.60;99.90;;;;;;5110617;28;20258;-82
2022/04/23 07:49:17;;;;;;;12.00;10.30;;;14.60;99.90;;;;;;5112224;28;20196;-82
2022/04/23 07:51:47;;;;;;;13.43;10.47;;;14.80;99.90;;;;;;5111141;28;20220;-80
2022/04/23 07:54:14;;;;;;;15.27;10.43;;;14.90;99.90;;;;;;5096385;28;20236;-83
2022/04/23 07:56:41;;;;;;;11.80;10.03;;;14.90;99.90;;;;;;5101030;28;20273;-84
2022/04/23 07:59:08;;;;;;;14.73;11.10;;;14.70;99.90;;;;;;5112415;28;20203;-81
2022/04/23 08:01:35;;;;;;;11.17;10.03;;;14.70;99.90;;;;;;5107272;28;20611;-81
2022/04/23 08:04:03;;;;;;;12.00;10.70;;;14.80;99.90;;;;;;5104712;28;20197;-83
2022/04/23 08:06:31;;;;;;;10.57;9.57;;;14.90;99.90;;;;;;5109039;28;20564;-80
2022/04/23 08:08:59;;;;;;;11.63;10.43;;;15.00;99.90;;;;;;5112572;28;20234;-83
2022/04/23 08:11:26;;;;;;;12.63;11.13;;;15.20;99.90;;;;;;5112305;28;20200;-84
2022/04/23 08:13:53;;;;;;;12.10;10.90;;;15.30;99.90;;;;;;5111963;28;20282;-83
2022/04/23 08:16:20;;;;;;;11.87;10.20;;;15.40;99.90;;;;;;5115123;28;20226;-83
2022/04/23 08:18:47;;;;;;;11.10;10.03;;;15.80;99.90;;;;;;5115622;28;20207;-84
2022/04/23 08:21:13;;;;;;;11.50;10.30;;;15.80;99.90;;;;;;5115038;28;20219;-83
2022/04/23 08:23:40;;;;;;;11.40;10.27;;;15.80;99.90;;;;;;5116640;28;20576;-83
2022/04/23 08:26:26;;;;;;;11.10;10.00;;;16.00;99.90;;;;;;5099084;28;20208;-84
2022/04/23 08:31:37;;;;;;;11.47;10.27;;;16.10;99.90;;;;;;5098024;28;20227;-83
2022/04/23 08:34:04;;;;;;;11.55;9.73;;;15.90;99.90;;;;;;5117126;28;20208;-83
2022/04/23 08:36:35;;;;;;;11.03;10.03;;;15.80;99.90;;;;;;5117877;28;20227;-82
2022/04/23 08:39:04;;;;;;;12.18;10.98;;;16.10;99.90;;;;;;5118722;28;20479;-85
2022/04/23 08:41:34;;;;;;;11.45;10.13;;;16.00;99.90;;;;;;5117871;28;20214;-82
2022/04/23 08:44:06;;;;;;;11.60;10.50;;;16.20;99.90;;;;;;5120922;28;20199;-84
2022/04/23 08:46:40;;;;;;;12.25;10.95;;;16.10;99.90;;;;;;5120583;28;20199;-83
2022/04/23 08:49:14;;;;;;;12.65;11.35;;;16.30;99.90;;;;;;5119094;28;20223;-83
2022/04/23 08:51:45;;;;;;;13.50;10.52;;;16.20;99.90;;;;;;5119877;28;20211;-84
2022/04/23 08:54:14;;;;;;;12.70;11.05;;;16.10;99.90;;;;;;5118577;28;20199;-83
2022/04/23 08:56:45;;;;;;;11.68;10.38;;;16.20;99.90;;;;;;5116056;28;20222;-84
2022/04/23 08:59:13;;;;;;;13.07;11.23;;;16.40;99.90;;;;;;5096388;28;20453;-82
2022/04/23 09:01:44;;;;;;;12.70;10.52;;;16.20;99.90;;;;;;5107892;28;20207;-81
2022/04/23 09:04:12;;;;;;;10.82;9.73;;;16.10;99.90;;;;;;5115817;28;20219;-83
2022/04/23 09:06:42;;;;;;;14.13;11.47;;;15.90;99.90;;;;;;5116308;28;20536;-83
2022/04/23 09:09:12;;;;;;;13.07;11.13;;;15.70;99.90;;;;;;5116210;28;20204;-82
2022/04/23 09:11:40;;;;;;;12.83;11.63;;;15.70;99.90;;;;;;5094855;28;20197;-85
2022/04/23 09:14:09;;;;;;;13.20;11.43;;;15.90;99.90;;;;;;5095591;28;20499;-84
2022/04/23 09:25:14;;;;;;;14.00;12.50;;;16.20;99.90;;;;;;5115864;28;20617;-83
2022/04/23 09:27:42;;;;;;;14.20;12.70;;;16.00;99.90;;;;;;5115328;28;20196;-84
2022/04/23 09:30:12;;;;;;;17.83;13.20;;;16.00;99.90;;;;;;5116057;28;20252;-83
2022/04/23 09:32:55;;;;;;;13.67;12.27;;;16.20;99.90;;;;;;5115675;28;20212;-83
2022/04/23 09:35:22;;;;;;;14.77;13.27;;;16.10;99.90;;;;;;5115858;28;20196;-83
2022/04/23 09:40:34;;;;;;;13.73;12.32;;;16.30;99.90;;;;;;5115950;28;20187;-83
2022/04/23 09:43:02;;;;;;;15.80;14.00;;;16.40;99.90;;;;;;5115047;28;20206;-85
2022/04/23 09:45:34;;;;;;;14.95;13.40;;;16.80;99.90;;;;;;5115591;28;20237;-84
2022/04/23 09:48:16;;;;;;;14.27;12.35;;;17.00;99.90;;;;;;5115713;28;20184;-84
2022/04/23 09:50:46;;;;;;;15.90;13.40;;;17.30;99.90;;;;;;5114863;28;20257;-82
2022/04/23 09:53:14;;;;;;;15.40;13.80;;;17.30;99.90;;;;;;5125697;22;20255;-87
2022/04/23 09:55:53;;;;;;;14.80;12.90;;;17.10;99.90;;;;;;5116500;28;20196;-84
2022/04/23 09:58:24;;;;;;;17.85;13.65;;;17.20;99.90;;;;;;5117970;28;20221;-84
2022/04/23 10:00:56;;;;;;;16.30;13.18;;;17.40;99.90;;;;;;5117384;28;20207;-83
2022/04/23 10:03:28;;;;;;;15.32;13.70;;;17.20;99.90;;;;;;5100469;28;20211;-83
2022/04/23 10:05:56;;;;;;;17.50;13.85;;;17.00;99.90;;;;;;5117936;28;20225;-82
2022/04/23 10:08:25;;;;;;;16.40;14.27;;;17.10;99.90;;;;;;5118140;28;20227;-83
2022/04/23 10:11:01;;;;;;;15.23;13.60;;;17.20;99.90;;;;;;5118700;28;20199;-83
2022/04/23 10:13:30;;;;;;;16.98;13.45;;;17.60;99.90;;;;;;5119106;28;20196;-82
2022/04/23 10:16:04;;;;;;;15.68;14.07;;;17.80;99.90;;;;;;5119270;28;20206;-83
2022/04/23 10:18:32;;;;;;;16.55;13.85;;;17.70;99.90;;;;;;5119029;28;20199;-83
2022/04/23 10:21:02;;;;;;;16.15;14.48;;;17.60;99.90;;;;;;5105128;28;20208;-83
2022/04/23 10:23:44;;;;;;;15.75;14.00;;;17.60;99.90;;;;;;5099023;28;20266;-85
2022/04/23 10:26:32;;;;;;;16.40;13.85;;;17.60;99.90;;;;;;5099213;28;20231;-82
2022/04/23 10:28:59;;;;;;;15.70;14.10;;;17.60;99.90;;;;;;5097916;28;20215;-82
2022/04/23 10:31:28;;;;;;;15.05;12.85;;;17.60;99.90;;;;;;5097950;28;20204;-82
2022/04/23 10:33:58;;;;;;;16.65;14.75;;;18.10;99.90;;;;;;5099045;28;20287;-86
2022/04/23 10:36:25;;;;;;;16.92;13.90;;;18.10;99.90;;;;;;5107896;28;20203;-83
2022/04/23 10:39:22;;;;;;;17.42;14.20;;;17.80;99.90;;;;;;5118820;28;20299;-81
2022/04/23 10:41:53;;;;;;;17.27;14.50;;;17.80;99.90;;;;;;5117672;28;20207;-83
2022/04/23 10:44:30;;;;;;;17.45;15.20;;;18.20;99.90;;;;;;5118764;28;20279;-82
2022/04/23 10:46:59;;;;;;;15.82;14.15;;;18.60;99.90;;;;;;5118920;28;20184;-83
2022/04/23 10:49:26;;;;;;;16.50;14.80;;;18.80;99.90;;;;;;5117728;28;20218;-83
2022/04/23 10:51:56;;;;;;;19.17;15.80;;;18.80;99.90;;;;;;5118557;28;20202;-83
2022/04/23 10:55:01;;;;;;;17.48;15.07;;;18.60;99.90;;;;;;5117650;28;20247;-83
2022/04/23 10:57:38;;;;;;;18.15;14.73;;;18.40;99.90;;;;;;5107496;28;20215;-82
2022/04/23 11:00:17;;;;;;;19.10;15.10;;;18.50;99.90;;;;;;5117968;28;20207;-83
2022/04/23 11:02:49;;;;;;;17.08;15.00;;;18.50;99.90;;;;;;5117965;28;20199;-82
2022/04/23 11:14:08;;;;;;;20.05;16.75;;;18.20;99.90;;;;;;5117916;28;20272;-82
2022/04/23 11:16:36;;;;;;;19.92;17.23;;;18.10;99.90;;;;;;5117145;28;20200;-83
2022/04/23 11:19:07;;;;;;;20.98;17.17;;;17.90;99.90;;;;;;5117669;28;20200;-83
2022/04/23 11:21:38;;;;;;;20.92;17.38;;;18.10;99.90;;;;;;5117246;28;20295;-83
2022/04/23 11:24:09;;;;;;;20.08;17.60;;;18.30;99.90;;;;;;5099289;28;20204;-87
2022/04/23 11:26:44;;;;;;;23.15;16.20;;;18.40;99.90;;;;;;5117348;28;20199;-82
2022/04/23 11:29:13;;;;;;;19.92;16.27;;;18.30;99.90;;;;;;5117004;28;20203;-83
2022/04/23 11:31:40;;;;;;;22.00;15.57;;;18.40;99.90;;;;;;5116764;28;20220;-81
2022/04/23 11:34:09;;;;;;;20.70;17.00;;;18.50;99.90;;;;;;5117388;28;20219;-83
2022/04/23 11:36:37;;;;;;;19.67;16.83;;;18.70;99.90;;;;;;5117581;28;20203;-82
2022/04/23 11:39:06;;;;;;;21.25;17.05;;;18.70;99.90;;;;;;5117255;28;20665;-83
2022/04/23 11:41:35;;;;;;;17.13;15.38;;;18.70;99.90;;;;;;5116637;28;20200;-81
2022/04/23 11:44:15;;;;;;;20.60;16.92;;;18.80;99.90;;;;;;5117462;28;20553;-82
2022/04/23 11:46:43;;;;;;;20.40;16.05;;;19.00;99.90;;;;;;5116330;28;20207;-82
2022/04/23 11:49:25;;;;;;;21.42;16.30;;;18.80;99.90;;;;;;5116982;28;20601;-81
2022/04/23 11:51:52;;;;;;;16.70;14.88;;;19.00;99.90;;;;;;5116600;28;20279;-82
2022/04/23 11:54:31;;;;;;;17.27;15.18;;;19.30;99.90;;;;;;5117113;28;20236;-82
2022/04/23 11:56:59;;;;;;;21.75;15.45;;;19.30;99.90;;;;;;5096650;28;20228;-82
2022/04/23 11:59:34;;;;;;;22.17;16.15;;;18.90;99.90;;;;;;5096521;28;20204;-85
2022/04/23 12:02:01;;;;;;;20.33;15.90;;;18.80;99.90;;;;;;5111243;28;20230;-82
2022/04/23 12:04:41;;;;;;;20.10;16.52;;;18.70;99.90;;;;;;5117175;28;20647;-82
2022/04/23 12:07:08;;;;;;;18.67;15.57;;;18.50;99.90;;;;;;5116049;28;20200;-83
2022/04/23 12:09:45;;;;;;;18.02;14.65;;;18.60;99.90;;;;;;5115491;28;20223;-81
2022/04/23 12:12:11;;;;;;;20.30;14.98;;;19.00;99.90;;;;;;5116975;28;20192;-82
2022/04/23 12:14:44;;;;;;;20.13;13.82;;;19.00;99.90;;;;;;5116429;28;20202;-82
2022/04/23 12:17:10;;;;;;;20.10;15.18;;;19.10;99.90;;;;;;5115659;28;20215;-81
2022/04/23 12:19:39;;;;;;;17.40;14.93;;;19.10;99.90;;;;;;5095885;28;20196;-81
2022/04/23 12:22:06;;;;;;;18.90;14.82;;;19.20;99.90;;;;;;5095945;28;20209;-83
2022/04/23 12:24:34;;;;;;;17.90;14.90;;;19.40;99.90;;;;;;5096340;28;20196;-79
2022/04/23 12:27:02;;;;;;;17.40;15.20;;;19.30;99.90;;;;;;5096005;28;20204;-82
2022/04/23 12:40:47;;;;;;;15.77;14.05;;;18.90;99.90;;;;;;5115905;28;20280;-83
2022/04/23 12:43:21;;;;;;;15.95;13.38;;;18.80;99.90;;;;;;5105639;28;20261;-82
2022/04/23 12:45:48;;;;;;;17.02;14.70;;;19.00;99.90;;;;;;5095811;28;20212;-82
2022/04/23 12:48:15;;;;;;;16.80;15.10;;;19.00;99.90;;;;;;5107234;28;20215;-82
2022/04/23 12:50:45;;;;;;;16.38;14.68;;;18.90;99.90;;;;;;5115883;28;20202;-82
2022/04/23 12:53:12;;;;;;;15.77;13.52;;;18.90;99.90;;;;;;5115537;28;20262;-82
2022/04/23 12:55:51;;;;;;;20.45;14.25;;;19.10;99.90;;;;;;5115325;28;20283;-83
2022/04/23 12:58:17;;;;;;;20.08;14.27;;;19.20;99.90;;;;;;5115100;28;20234;-82
2022/04/23 13:00:45;;;;;;;19.05;14.13;;;19.10;99.90;;;;;;5115875;28;20218;-81
2022/04/23 13:03:23;;;;;;;17.58;13.55;;;19.00;99.90;;;;;;5115305;28;20210;-82
2022/04/23 13:05:51;;;;;;;18.90;14.52;;;18.80;99.90;;;;;;5115658;28;20192;-81
2022/04/23 13:13:43;;;;;;;17.55;13.43;;;18.80;99.90;;;;;;5114629;28;20635;-82
2022/04/23 13:16:10;;;;;;;16.65;14.00;;;18.90;99.90;;;;;;5115162;28;20578;-82
2022/04/23 13:18:37;;;;;;;18.33;15.25;;;18.80;99.90;;;;;;5114972;28;20230;-83
2022/04/23 13:21:07;;;;;;;16.17;12.95;;;18.80;99.90;;;;;;5115917;28;20320;-83
2022/04/23 13:23:34;;;;;;;15.52;12.93;;;18.90;99.90;;;;;;5115312;28;20198;-82